createdAt,value
2023-04-16T00:03:44.363Z,102225.91
2023-04-16T00:07:46.368Z,102220.81
2023-04-16T00:11:48.133Z,102220.81
2023-04-16T00:15:49.953Z,102223.69
2023-04-16T00:19:51.872Z,102219.53
2023-04-16T00:23:53.798Z,102224.22
2023-04-16T00:27:55.980Z,102214.56
2023-04-16T00:31:57.853Z,102212.75
2023-04-16T00:35:59.778Z,102217.22
2023-04-16T00:40:01.988Z,102205.97
2023-04-16T00:44:04.151Z,102205.13
2023-04-16T00:48:06.162Z,102195.53
2023-04-16T00:52:08.196Z,102206.41
2023-04-16T00:56:10.603Z,102210.03
2023-04-16T01:00:13.197Z,102211.94
2023-04-16T01:04:15.463Z,102218.94
2023-04-16T01:08:22.268Z,102217.88
2023-04-16T01:12:24.068Z,102208.09
2023-04-16T01:16:27.440Z,102225.50
2023-04-16T01:20:29.848Z,102207.88
2023-04-16T01:24:32.208Z,102225.50
2023-04-16T01:28:34.195Z,102209.56
2023-04-16T01:32:36.364Z,102215.75
2023-04-16T01:36:38.303Z,102226.97
2023-04-16T01:40:40.265Z,102232.31
2023-04-16T01:44:42.104Z,102216.34
2023-04-16T01:48:44.074Z,102218.28
2023-04-16T01:52:46.082Z,102227.84
2023-04-16T01:56:48.123Z,102226.13
2023-04-16T02:00:50.186Z,102211.03
2023-04-16T02:04:52.038Z,102224.22
2023-04-16T02:08:54.156Z,102215.41
2023-04-16T02:12:56.720Z,102225.19
2023-04-16T02:16:59.053Z,102226.03
2023-04-16T02:21:21.126Z,102230.41
2023-04-16T02:25:24.447Z,102238.38
2023-04-16T02:29:29.991Z,102230.59
2023-04-16T02:33:39.421Z,102230.81
2023-04-16T02:37:41.940Z,102236.38
2023-04-16T02:41:43.805Z,102234.66
2023-04-16T02:45:45.748Z,102237.31
2023-04-16T02:49:47.704Z,102238.28
2023-04-16T02:53:49.565Z,102243.38
2023-04-16T02:57:53.017Z,102245.06
2023-04-16T03:01:55.128Z,102239.75
2023-04-16T03:05:57.246Z,102242.41
2023-04-16T03:09:59.068Z,102245.06
2023-04-16T03:14:00.923Z,102251.25
2023-04-16T03:18:03.451Z,102248.69
2023-04-16T03:22:05.568Z,102245.28
2023-04-16T03:26:09.486Z,102242.13
2023-04-16T03:30:12.704Z,102247.53
2023-04-16T03:34:14.587Z,102247.78
2023-04-16T03:38:16.957Z,102253.19
2023-04-16T03:42:18.873Z,102250.63
2023-04-16T03:46:21.144Z,102255.09
2023-04-16T03:50:23.231Z,102266.66
2023-04-16T03:54:25.093Z,102249.16
2023-04-16T03:58:36.266Z,102251.69
2023-04-16T04:02:38.372Z,102248.31
2023-04-16T04:06:40.394Z,102246.38
2023-04-16T04:10:42.306Z,102248.19
2023-04-16T04:14:46.479Z,102245.53
2023-04-16T04:18:48.529Z,102252.53
2023-04-16T04:22:51.025Z,102255.31
2023-04-16T04:26:55.385Z,102254.34
2023-04-16T04:30:58.442Z,102258.81
2023-04-16T04:35:02.126Z,102259.66
2023-04-16T04:39:04.160Z,102255.94
2023-04-16T04:43:06.076Z,102258.50
2023-04-16T04:47:08.460Z,102271.69
2023-04-16T04:51:10.744Z,102272.53
2023-04-16T04:55:14.295Z,102265.53
2023-04-16T04:59:16.483Z,102267.22
2023-04-16T05:03:21.776Z,102274.22
2023-04-16T05:07:23.778Z,102272.31
2023-04-16T05:11:25.678Z,102274.09
2023-04-16T05:15:27.561Z,102274.84
2023-04-16T05:19:29.587Z,102286.34
2023-04-16T05:23:31.474Z,102287.19
2023-04-16T05:27:33.276Z,102285.28
2023-04-16T05:31:35.076Z,102282.63
2023-04-16T05:35:36.995Z,102298.66
2023-04-16T05:39:38.766Z,102291.66
2023-04-16T05:43:40.694Z,102299.75
2023-04-16T05:47:42.562Z,102295.28
2023-04-16T05:51:44.678Z,102296.97
2023-04-16T05:55:47.274Z,102294.09
2023-04-16T05:59:49.133Z,102300.25
2023-04-16T06:03:51.040Z,102311.84
2023-04-16T06:07:53.277Z,102308.22
2023-04-16T06:11:55.606Z,102304.72
2023-04-16T06:15:57.415Z,102309.06
2023-04-16T06:19:59.292Z,102309.06
2023-04-16T06:24:01.351Z,102310.81
2023-04-16T06:28:03.242Z,102320.47
2023-04-16T06:32:05.829Z,102315.03
2023-04-16T06:36:07.701Z,102328.22
2023-04-16T06:40:09.946Z,102337.69
2023-04-16T06:44:11.965Z,102327.06
2023-04-16T06:48:13.843Z,102327.78
2023-04-16T06:52:15.860Z,102331.19
2023-04-16T06:56:17.714Z,102334.50
2023-04-16T07:00:19.549Z,102340.44
2023-04-16T07:04:21.964Z,102348.22
2023-04-16T07:08:23.830Z,102342.66
2023-04-16T07:12:25.878Z,102349.56
2023-04-16T07:16:27.747Z,102349.44
2023-04-16T07:20:29.621Z,102348.59
2023-04-16T07:24:31.460Z,102349.44
2023-04-16T07:28:33.255Z,102358.19
2023-04-16T07:32:35.654Z,102354.56
2023-04-16T07:36:37.499Z,102354.56
2023-04-16T07:40:39.394Z,102352.66
2023-04-16T07:44:41.447Z,102365.63
2023-04-16T07:48:43.431Z,102361.69
2023-04-16T07:52:46.725Z,102369.19
2023-04-16T07:56:48.574Z,102370.47
2023-04-16T08:00:51.063Z,102375.38
2023-04-16T08:04:53.096Z,102383.63
2023-04-16T08:08:54.960Z,102382.66
2023-04-16T08:12:57.115Z,102392.13
2023-04-16T08:16:58.986Z,102390.94
2023-04-16T08:21:00.861Z,102400.66
2023-04-16T08:25:04.417Z,102405.75
2023-04-16T08:29:06.215Z,102405.50
2023-04-16T08:33:08.322Z,102407.00
2023-04-16T08:37:10.550Z,102408.50
2023-04-16T08:41:14.195Z,102409.97
2023-04-16T08:45:18.224Z,102415.28
2023-04-16T08:49:20.122Z,102424.22
2023-04-16T08:53:29.093Z,102422.75
2023-04-16T08:57:47.588Z,102421.91
2023-04-16T09:01:49.896Z,102429.88
2023-04-16T09:05:53.088Z,102439.97
2023-04-16T09:09:55.307Z,102429.88
2023-04-16T09:13:58.182Z,102439.53
2023-04-16T09:18:00.158Z,102439.31
2023-04-16T09:22:02.148Z,102435.50
2023-04-16T09:26:05.281Z,102437.94
2023-04-16T09:30:24.850Z,102435.03
2023-04-16T09:34:27.246Z,102439.94
2023-04-16T09:38:49.612Z,102446.72
2023-04-16T09:42:52.494Z,102451.00
2023-04-16T09:46:54.331Z,102451.63
2023-04-16T09:50:56.601Z,102459.38
2023-04-16T09:55:00.187Z,102456.09
2023-04-16T09:59:02.373Z,102460.31
2023-04-16T10:03:05.910Z,102459.47
2023-04-16T10:07:08.030Z,102472.91
2023-04-16T10:11:10.911Z,102466.75
2023-04-16T10:15:12.847Z,102476.31
2023-04-16T10:19:17.922Z,102470.47
2023-04-16T10:23:22.004Z,102471.44
2023-04-16T10:27:24.783Z,102471.44
2023-04-16T10:31:28.032Z,102481.75
2023-04-16T10:35:30.724Z,102482.38
2023-04-16T10:39:37.692Z,102482.25
2023-04-16T10:43:50.931Z,102484.28
2023-04-16T10:47:57.279Z,102490.38
2023-04-16T10:52:02.395Z,102489.91
2023-04-16T10:56:05.013Z,102497.38
2023-04-16T11:00:22.864Z,102489.13
2023-04-16T11:04:25.170Z,102491.47
2023-04-16T11:08:30.245Z,102486.84
2023-04-16T11:12:38.284Z,102487.25
2023-04-16T11:16:40.983Z,102491.63
2023-04-16T11:20:42.918Z,102485.31
2023-04-16T11:24:45.843Z,102489.78
2023-04-16T11:28:47.716Z,102489.78
2023-04-16T11:32:49.550Z,102487.88
2023-04-16T11:36:52.478Z,102495.66
2023-04-16T11:40:54.322Z,102491.25
2023-04-16T11:44:58.364Z,102497.47
2023-04-16T11:49:00.261Z,102496.84
2023-04-16T11:53:06.496Z,102499.63
2023-04-16T11:57:08.388Z,102504.09
2023-04-16T12:01:10.957Z,102491.53
2023-04-16T12:05:35.542Z,102492.69
2023-04-16T12:09:40.692Z,102501.72
2023-04-16T12:13:42.859Z,102495.69
2023-04-16T12:17:44.808Z,102498.84
2023-04-16T12:21:48.833Z,102510.72
2023-04-16T12:25:52.221Z,102506.38
2023-04-16T12:30:05.151Z,102502.50
2023-04-16T12:34:07.059Z,102500.81
2023-04-16T12:38:09.254Z,102516.56
2023-04-16T12:42:12.948Z,102503.75
2023-04-16T12:46:14.768Z,102508.38
2023-04-16T12:50:16.713Z,102516.75
2023-04-16T12:54:18.601Z,102515.16
2023-04-16T12:58:20.488Z,102516.88
2023-04-16T13:02:22.907Z,102510.09
2023-04-16T13:06:24.996Z,102505.28
2023-04-16T13:10:28.094Z,102500.19
2023-04-16T13:14:29.859Z,102513.06
2023-04-16T13:18:31.707Z,102505.53
2023-04-16T13:22:33.915Z,102497.19
2023-04-16T13:26:35.970Z,102497.78
2023-04-16T13:30:37.820Z,102500.97
2023-04-16T13:34:39.801Z,102492.59
2023-04-16T13:38:42.405Z,102496.81
2023-04-16T13:42:44.363Z,102503.38
2023-04-16T13:46:47.986Z,102494.44
2023-04-16T13:50:49.866Z,102496.13
2023-04-16T13:54:51.642Z,102493.22
2023-04-16T13:58:56.365Z,102498.03
2023-04-16T14:02:58.296Z,102496.09
2023-04-16T14:07:00.604Z,102502.66
2023-04-16T14:11:02.480Z,102508.84
2023-04-16T14:15:06.983Z,102505.94
2023-04-16T14:19:09.444Z,102512.13
2023-04-16T14:23:12.689Z,102515.75
2023-04-16T14:27:14.544Z,102512.81
2023-04-16T14:31:18.293Z,102510.41
2023-04-16T14:35:20.553Z,102499.47
2023-04-16T14:39:22.426Z,102511.03
2023-04-16T14:43:24.230Z,102513.09
2023-04-16T14:47:26.067Z,102512.34
2023-04-16T14:51:27.944Z,102501.44
2023-04-16T14:55:29.969Z,102519.88
2023-04-16T14:59:32.613Z,102507.13
2023-04-16T15:03:34.727Z,102506.63
2023-04-16T15:07:37.380Z,102506.38
2023-04-16T15:11:39.364Z,102512.06
2023-04-16T15:15:41.563Z,102508.66
2023-04-16T15:19:43.648Z,102506.72
2023-04-16T15:23:45.517Z,102499.97
2023-04-16T15:27:47.336Z,102512.34
2023-04-16T15:31:49.146Z,102500.22
2023-04-16T15:35:51.903Z,102498.03
2023-04-16T15:39:53.944Z,102488.19
2023-04-16T15:43:55.820Z,102489.06
2023-04-16T15:47:57.881Z,102493.28
2023-04-16T15:52:00.584Z,102491.97
2023-04-16T15:56:02.458Z,102488.09
2023-04-16T16:00:14.002Z,102492.22
2023-04-16T16:04:16.394Z,102492.69
2023-04-16T16:08:18.667Z,102499.47
2023-04-16T16:12:20.440Z,102489.06
2023-04-16T16:16:22.347Z,102494.97
2023-04-16T16:20:25.137Z,102494.38
2023-04-16T16:24:28.296Z,102505.28
2023-04-16T16:28:30.079Z,102503.59
2023-04-16T16:32:31.984Z,102500.66
2023-04-16T16:36:36.917Z,102506.47
2023-04-16T16:40:39.851Z,102508.53
2023-04-16T16:44:41.937Z,102504.03
2023-04-16T16:48:43.877Z,102517.47
2023-04-16T16:52:45.833Z,102513.25
2023-04-16T16:56:47.653Z,102520.50
2023-04-16T17:00:49.552Z,102509.81
2023-04-16T17:04:52.880Z,102515.16
2023-04-16T17:08:54.701Z,102514.31
2023-04-16T17:12:56.509Z,102526.53
2023-04-16T17:16:58.391Z,102520.81
2023-04-16T17:21:00.465Z,102520.63
2023-04-16T17:25:02.417Z,102527.16
2023-04-16T17:29:04.692Z,102520.59
2023-04-16T17:33:06.617Z,102526.25
2023-04-16T17:37:08.509Z,102519.47
2023-04-16T17:41:10.570Z,102530.13
2023-04-16T17:45:12.684Z,102517.88
2023-04-16T17:49:14.454Z,102524.91
2023-04-16T17:53:16.264Z,102527.81
2023-04-16T17:57:18.061Z,102527.06
2023-04-16T18:01:19.965Z,102535.03
2023-04-16T18:05:21.957Z,102535.53
2023-04-16T18:09:23.770Z,102539.38
2023-04-16T18:13:25.637Z,102545.00
2023-04-16T18:17:27.525Z,102552.16
2023-04-16T18:21:30.536Z,102554.09
2023-04-16T18:25:34.893Z,102560.50
2023-04-16T18:29:39.694Z,102552.63
2023-04-16T18:33:55.803Z,102568.19
2023-04-16T18:37:59.508Z,102566.06
2023-04-16T18:42:01.759Z,102567.34
2023-04-16T18:46:03.602Z,102573.75
2023-04-16T18:50:09.606Z,102569.50
2023-04-16T18:54:11.648Z,102575.84
2023-04-16T18:58:13.464Z,102588.44
2023-04-16T19:02:15.322Z,102587.78
2023-04-16T19:06:17.492Z,102594.06
2023-04-16T19:10:19.332Z,102601.19
2023-04-16T19:14:21.493Z,102609.50
2023-04-16T19:18:23.283Z,102601.00
2023-04-16T19:22:25.060Z,102609.09
2023-04-16T19:26:27.212Z,102606.63
2023-04-16T19:30:29.519Z,102596.22
2023-04-16T19:34:31.278Z,102604.19
2023-04-16T19:38:33.119Z,102592.91
2023-04-16T19:42:34.898Z,102601.84
2023-04-16T19:46:37.300Z,102605.38
2023-04-16T19:50:41.122Z,102597.59
2023-04-16T19:54:43.486Z,102604.63
2023-04-16T19:58:45.358Z,102604.63
2023-04-16T20:02:47.268Z,102600.06
2023-04-16T20:06:49.284Z,102596.31
2023-04-16T20:10:53.473Z,102608.34
2023-04-16T20:14:55.422Z,102605.91
2023-04-16T20:18:57.820Z,102606.88
2023-04-16T20:22:59.846Z,102607.78
2023-04-16T20:27:01.976Z,102611.63
2023-04-16T20:31:03.823Z,102609.16
2023-04-16T20:35:10.598Z,102597.81
2023-04-16T20:39:12.848Z,102604.81
2023-04-16T20:43:18.874Z,102612.81
2023-04-16T20:47:22.349Z,102600.47
2023-04-16T20:51:24.193Z,102599.50
2023-04-16T20:55:26.098Z,102590.78
2023-04-16T20:59:27.860Z,102590.03
2023-04-16T21:03:29.874Z,102596.31
2023-04-16T21:07:31.872Z,102587.56
2023-04-16T21:11:35.265Z,102590.53
2023-04-16T21:15:42.003Z,102584.59
2023-04-16T21:19:43.937Z,102587.38
2023-04-16T21:23:46.390Z,102581.19
2023-04-16T21:27:48.242Z,102583.75
2023-04-16T21:31:50.087Z,102582.03
2023-04-16T21:35:52.739Z,102585.75
2023-04-16T21:39:54.601Z,102577.78
2023-04-16T21:43:56.426Z,102578.63
2023-04-16T21:47:58.497Z,102583.84
2023-04-16T21:52:02.585Z,102578.41
2023-04-16T21:56:04.963Z,102579.16
2023-04-16T22:00:14.432Z,102587.13
2023-04-16T22:04:16.280Z,102578.53
2023-04-16T22:08:25.060Z,102591.19
2023-04-16T22:12:27.053Z,102573.69
2023-04-16T22:16:28.865Z,102586.16
2023-04-16T22:20:30.988Z,102582.66
2023-04-16T22:24:32.811Z,102583.50
2023-04-16T22:28:34.652Z,102587.88
2023-04-16T22:32:36.588Z,102578.81
2023-04-16T22:36:38.548Z,102572.66
2023-04-16T22:40:40.611Z,102579.91
2023-04-16T22:44:42.471Z,102575.44
2023-04-16T22:48:44.416Z,102573.50
2023-04-16T22:52:46.192Z,102579.66
2023-04-16T22:56:48.786Z,102571.81
2023-04-16T23:00:52.182Z,102573.63
2023-04-16T23:04:53.983Z,102576.06
2023-04-16T23:08:55.851Z,102577.97
2023-04-16T23:12:57.719Z,102586.16
2023-04-16T23:16:59.646Z,102578.38
2023-04-16T23:21:01.455Z,102579.34
2023-04-16T23:25:03.335Z,102580.44
2023-04-16T23:29:05.199Z,102568.91
2023-04-16T23:33:07.004Z,102584.03
2023-04-16T23:37:08.917Z,102587.84
2023-04-16T23:41:10.690Z,102597.53
2023-04-16T23:45:12.879Z,102588.91
2023-04-16T23:49:14.658Z,102588.91
2023-04-16T23:53:16.668Z,102593.47
2023-04-16T23:57:18.490Z,102591.13
